Time;durP1;ratioP1;P1;durP2;ratioP2;P2;SDS_P1;SDS_P2;PMS_P1;PMS_P2;Temp;Humidity;BMP_temperature;BMP_pressure;BME280_temperature;BME280_humidity;BME280_pressure;Samples;Min_cycle;Max_cycle;Signal;HPM_P1;HPM_P2
2022/04/14 00:01:17;;;;;;;3.33;3.03;;;17.70;56.70;;;;;;5136660;27;20211;-70
2022/04/14 00:03:42;;;;;;;3.95;3.55;;;17.70;56.70;;;;;;5135654;27;20201;-70
2022/04/14 00:06:08;;;;;;;3.67;3.38;;;17.70;56.70;;;;;;5148855;27;20630;-70
2022/04/14 00:08:33;;;;;;;3.90;3.55;;;17.70;56.70;;;;;;5156187;27;20179;-70
2022/04/14 00:10:59;;;;;;;3.83;3.53;;;17.70;56.70;;;;;;5156237;27;20183;-71
2022/04/14 00:13:24;;;;;;;3.72;3.42;;;17.70;56.70;;;;;;5155254;27;20188;-71
2022/04/14 00:15:50;;;;;;;4.18;3.78;;;17.70;56.70;;;;;;5156149;27;20175;-71
2022/04/14 00:18:15;;;;;;;3.80;3.50;;;17.70;56.60;;;;;;5155614;27;20631;-70
2022/04/14 00:20:44;;;;;;;4.20;3.80;;;17.70;56.60;;;;;;5155290;27;20286;-70
2022/04/14 00:23:09;;;;;;;3.83;3.53;;;17.70;56.70;;;;;;5155451;27;20654;-71
2022/04/14 00:25:35;;;;;;;3.50;3.05;;;17.70;56.60;;;;;;5155904;27;20176;-71
2022/04/14 00:28:00;;;;;;;3.78;3.47;;;17.70;56.70;;;;;;5155196;27;20198;-72
2022/04/14 00:30:26;;;;;;;3.83;3.53;;;17.70;56.60;;;;;;5155362;27;20240;-68
2022/04/14 00:32:51;;;;;;;4.00;3.60;;;17.70;56.60;;;;;;5154732;27;20246;-70
2022/04/14 00:35:17;;;;;;;4.22;3.83;;;17.70;56.70;;;;;;5154535;27;20195;-69
2022/04/14 00:37:42;;;;;;;3.80;3.50;;;17.60;56.50;;;;;;5155555;27;20180;-71
2022/04/14 00:40:09;;;;;;;4.57;4.18;;;17.60;56.50;;;;;;5155394;27;20175;-72
2022/04/14 00:42:34;;;;;;;4.15;3.85;;;17.60;56.50;;;;;;5154801;27;20248;-70
2022/04/14 00:45:00;;;;;;;4.53;3.97;;;17.70;56.60;;;;;;5155687;27;20626;-71
2022/04/14 00:47:25;;;;;;;4.30;3.90;;;17.70;56.60;;;;;;5155156;27;20225;-69
2022/04/14 00:49:51;;;;;;;4.18;3.30;;;17.60;56.50;;;;;;5154741;27;20198;-71
2022/04/14 00:52:16;;;;;;;5.03;4.38;;;17.60;56.60;;;;;;5136395;27;20218;-70
2022/04/14 00:54:42;;;;;;;5.57;5.07;;;17.60;56.60;;;;;;5155180;27;20186;-70
2022/04/14 00:57:08;;;;;;;5.43;4.93;;;17.60;56.50;;;;;;5154075;27;20263;-72
2022/04/14 00:59:34;;;;;;;4.10;3.80;;;17.60;56.50;;;;;;5155325;27;20565;-71
2022/04/14 01:01:59;;;;;;;4.57;4.18;;;17.60;56.50;;;;;;5155003;27;20224;-72
2022/04/14 01:04:25;;;;;;;5.47;4.53;;;17.60;56.60;;;;;;5135726;27;20187;-70
2022/04/14 01:06:51;;;;;;;5.03;4.63;;;17.60;56.50;;;;;;5134553;27;20176;-69
2022/04/14 01:09:18;;;;;;;5.03;4.57;;;17.60;56.60;;;;;;5114705;27;20604;-68
2022/04/14 01:11:48;;;;;;;4.35;4.05;;;17.60;56.60;;;;;;5134020;27;20709;-70
2022/04/14 01:14:26;;;;;;;4.70;4.30;;;17.60;56.60;;;;;;5133905;27;20172;-71
2022/04/14 01:16:53;;;;;;;4.60;4.20;;;17.60;56.60;;;;;;5115969;27;20172;-70
2022/04/14 01:19:18;;;;;;;5.28;4.78;;;17.60;56.50;;;;;;5134049;27;20191;-72
2022/04/14 01:21:46;;;;;;;4.70;4.20;;;17.60;56.50;;;;;;5133818;27;20621;-71
2022/04/14 01:24:13;;;;;;;5.35;4.85;;;17.50;56.50;;;;;;5133210;27;20173;-71
2022/04/14 01:26:40;;;;;;;4.90;4.50;;;17.60;56.50;;;;;;5115634;27;20664;-71
2022/04/14 01:29:05;;;;;;;5.55;4.97;;;17.60;56.50;;;;;;5133881;27;20172;-70
2022/04/14 01:31:31;;;;;;;5.57;4.90;;;17.60;56.60;;;;;;5133008;27;20220;-71
2022/04/14 01:33:56;;;;;;;5.53;5.03;;;17.60;56.60;;;;;;5133844;27;20275;-71
2022/04/14 01:36:22;;;;;;;5.22;4.72;;;17.60;56.60;;;;;;5133327;27;20196;-70
2022/04/14 01:38:47;;;;;;;5.57;4.88;;;17.60;56.60;;;;;;5133241;27;20164;-71
2022/04/14 01:41:13;;;;;;;5.50;4.95;;;17.50;56.50;;;;;;5133458;27;20180;-70
2022/04/14 01:43:38;;;;;;;4.90;4.40;;;17.60;56.60;;;;;;5133879;27;20185;-69
2022/04/14 01:46:08;;;;;;;5.00;4.60;;;17.60;56.60;;;;;;5133057;27;20179;-72
2022/04/14 01:48:34;;;;;;;5.28;4.78;;;17.50;56.50;;;;;;5133446;27;20176;-70
2022/04/14 01:50:59;;;;;;;5.60;5.10;;;17.50;56.60;;;;;;5133444;27;20251;-70
2022/04/14 01:53:25;;;;;;;5.55;5.05;;;17.50;56.50;;;;;;5132437;27;20263;-70
2022/04/14 01:55:50;;;;;;;5.60;5.10;;;17.50;56.50;;;;;;5133323;27;20626;-71
2022/04/14 01:58:16;;;;;;;6.30;5.10;;;17.50;56.60;;;;;;5132981;27;20186;-70
2022/04/14 02:00:41;;;;;;;5.85;5.25;;;17.50;56.60;;;;;;5132058;27;20203;-70
2022/04/14 02:03:07;;;;;;;5.88;5.38;;;17.50;56.60;;;;;;5132461;27;20216;-69
2022/04/14 02:05:32;;;;;;;5.68;5.18;;;17.50;56.60;;;;;;5141740;27;20251;-70
2022/04/14 02:07:58;;;;;;;5.75;5.25;;;17.50;56.60;;;;;;5154031;27;20638;-70
2022/04/14 02:10:24;;;;;;;5.70;5.20;;;17.50;56.60;;;;;;5153798;27;20167;-70
2022/04/14 02:12:49;;;;;;;6.07;5.47;;;17.50;56.60;;;;;;5153209;27;20203;-71
2022/04/14 02:15:14;;;;;;;6.00;5.45;;;17.50;56.60;;;;;;5153359;27;20200;-70
2022/04/14 02:17:40;;;;;;;5.50;5.00;;;17.50;56.60;;;;;;5153815;27;20598;-71
2022/04/14 02:20:06;;;;;;;5.70;5.18;;;17.40;56.50;;;;;;5152757;27;20267;-71
2022/04/14 02:22:38;;;;;;;6.22;5.72;;;17.50;56.60;;;;;;5153759;27;20608;-71
2022/04/14 02:25:04;;;;;;;6.25;5.65;;;17.50;56.60;;;;;;5153933;27;20168;-71
2022/04/14 02:27:30;;;;;;;5.47;5.00;;;17.50;56.60;;;;;;5152476;27;20275;-70
2022/04/14 02:29:56;;;;;;;6.40;5.82;;;17.50;56.60;;;;;;5153532;27;20547;-71
2022/04/14 02:32:21;;;;;;;6.18;5.68;;;17.50;56.60;;;;;;5153034;27;20195;-69
2022/04/14 02:34:47;;;;;;;6.20;5.60;;;17.40;56.50;;;;;;5152518;27;20198;-69
2022/04/14 02:37:13;;;;;;;5.82;5.32;;;17.40;56.50;;;;;;5153316;27;20195;-69
2022/04/14 02:39:39;;;;;;;6.57;5.97;;;17.40;56.50;;;;;;5153294;27;20251;-71
2022/04/14 02:42:05;;;;;;;6.55;5.95;;;17.40;56.50;;;;;;5152704;27;20186;-71
2022/04/14 02:44:30;;;;;;;5.70;5.20;;;17.50;56.60;;;;;;5153102;27;20259;-70
2022/04/14 02:46:56;;;;;;;5.65;5.15;;;17.50;56.60;;;;;;5153350;27;20168;-71
2022/04/14 02:49:22;;;;;;;5.70;5.20;;;17.40;56.50;;;;;;5152292;27;20164;-69
2022/04/14 02:51:48;;;;;;;5.28;4.85;;;17.40;56.60;;;;;;5153477;27;20208;-70
2022/04/14 02:54:14;;;;;;;5.60;5.15;;;17.40;56.50;;;;;;5153121;27;20175;-70
2022/04/14 02:56:39;;;;;;;6.47;5.97;;;17.40;56.50;;;;;;5152884;27;20167;-70
2022/04/14 02:59:05;;;;;;;6.22;5.63;;;17.40;56.50;;;;;;5153288;27;20217;-71
2022/04/14 03:01:30;;;;;;;6.30;5.80;;;17.40;56.60;;;;;;5152792;27;20219;-70
2022/04/14 03:03:56;;;;;;;6.00;5.50;;;17.40;56.60;;;;;;5152451;27;20172;-72
2022/04/14 03:06:21;;;;;;;6.22;5.72;;;17.40;56.50;;;;;;5135714;27;20233;-69
2022/04/14 03:08:47;;;;;;;7.20;6.57;;;17.40;56.60;;;;;;5131733;28;20728;-70
2022/04/14 03:11:12;;;;;;;6.35;5.75;;;17.40;56.60;;;;;;5132183;28;20188;-70
2022/04/14 03:13:39;;;;;;;6.45;5.85;;;17.40;56.60;;;;;;5132551;28;20183;-69
2022/04/14 03:16:04;;;;;;;6.68;6.18;;;17.40;56.50;;;;;;5133514;27;20179;-71
2022/04/14 03:18:33;;;;;;;6.22;5.72;;;17.40;56.50;;;;;;5136053;27;20172;-70
2022/04/14 03:20:59;;;;;;;6.55;5.95;;;17.40;56.60;;;;;;5136715;27;20173;-71
2022/04/14 03:23:24;;;;;;;7.50;6.82;;;17.40;56.60;;;;;;5135233;27;20187;-70
2022/04/14 03:25:50;;;;;;;6.28;5.75;;;17.30;56.50;;;;;;5136735;27;20172;-71
2022/04/14 03:28:15;;;;;;;6.50;5.90;;;17.40;56.60;;;;;;5136331;27;20168;-70
2022/04/14 03:30:41;;;;;;;6.45;5.85;;;17.40;56.60;;;;;;5135459;27;20315;-69
2022/04/14 03:33:06;;;;;;;6.80;6.18;;;17.40;56.60;;;;;;5135693;27;20543;-69
2022/04/14 03:35:32;;;;;;;6.60;5.95;;;17.40;56.60;;;;;;5135940;27;20168;-68
2022/04/14 03:37:57;;;;;;;6.20;5.70;;;17.30;56.60;;;;;;5135453;27;20275;-70
2022/04/14 03:40:23;;;;;;;6.80;6.20;;;17.30;56.60;;;;;;5135025;27;20268;-69
2022/04/14 03:42:48;;;;;;;6.95;6.35;;;17.40;56.60;;;;;;5135888;27;20283;-69
2022/04/14 03:45:14;;;;;;;6.72;6.13;;;17.30;56.50;;;;;;5134979;27;20173;-70
2022/04/14 03:47:39;;;;;;;7.30;6.70;;;17.40;56.60;;;;;;5135855;27;20212;-70
2022/04/14 03:50:05;;;;;;;7.43;6.78;;;17.30;56.50;;;;;;5136062;27;20272;-71
2022/04/14 03:52:31;;;;;;;7.70;7.03;;;17.30;57.20;;;;;;5134714;27;20204;-70
2022/04/14 03:54:57;;;;;;;7.47;6.80;;;17.30;56.60;;;;;;5135803;27;20177;-71
2022/04/14 03:57:23;;;;;;;7.43;6.72;;;17.30;56.60;;;;;;5135621;27;20241;-71
2022/04/14 03:59:49;;;;;;;6.93;6.32;;;17.30;56.50;;;;;;5135005;27;20173;-71
2022/04/14 04:02:14;;;;;;;7.88;7.18;;;17.30;56.60;;;;;;5135077;27;20228;-69
2022/04/14 04:04:45;;;;;;;7.25;6.65;;;17.30;56.60;;;;;;5137717;27;20200;-70
2022/04/14 04:07:11;;;;;;;7.07;6.47;;;17.30;56.60;;;;;;5155688;27;20172;-70
2022/04/14 04:09:38;;;;;;;7.13;6.53;;;17.30;56.60;;;;;;5156566;27;20168;-70
2022/04/14 04:12:04;;;;;;;7.00;6.40;;;17.30;57.20;;;;;;5155268;27;20610;-71
2022/04/14 04:14:30;;;;;;;7.93;7.22;;;17.30;56.60;;;;;;5155953;27;20187;-69
2022/04/14 04:16:55;;;;;;;7.78;7.07;;;17.30;56.60;;;;;;5156163;27;20224;-72
2022/04/14 04:19:21;;;;;;;7.03;6.43;;;17.30;56.60;;;;;;5155261;27;20168;-71
2022/04/14 04:21:46;;;;;;;6.53;6.03;;;17.20;56.50;;;;;;5156195;27;20171;-71
2022/04/14 04:24:12;;;;;;;7.03;6.43;;;17.30;56.60;;;;;;5155781;27;20164;-71
2022/04/14 04:26:37;;;;;;;7.30;6.70;;;17.30;56.60;;;;;;5154721;27;20634;-71
2022/04/14 04:29:03;;;;;;;7.10;6.40;;;17.30;56.60;;;;;;5155909;27;20253;-72
2022/04/14 04:31:28;;;;;;;7.15;6.55;;;17.20;56.60;;;;;;5155548;27;20380;-69
2022/04/14 04:33:54;;;;;;;7.50;6.80;;;17.30;56.60;;;;;;5155379;27;20271;-69
2022/04/14 04:36:20;;;;;;;6.93;6.35;;;17.30;56.60;;;;;;5155659;27;20717;-69
2022/04/14 04:38:45;;;;;;;7.03;6.53;;;17.30;56.60;;;;;;5156054;27;20171;-69
2022/04/14 04:41:11;;;;;;;7.32;6.72;;;17.30;56.60;;;;;;5154569;27;20179;-70
2022/04/14 04:43:36;;;;;;;7.35;6.65;;;17.20;56.60;;;;;;5155633;27;20278;-69
2022/04/14 04:46:02;;;;;;;7.80;7.10;;;17.30;56.60;;;;;;5155554;27;20279;-71
2022/04/14 04:48:27;;;;;;;7.13;6.53;;;17.20;56.60;;;;;;5154827;27;20183;-68
2022/04/14 04:50:53;;;;;;;6.63;6.13;;;17.20;56.60;;;;;;5155675;27;20209;-70
2022/04/14 04:53:19;;;;;;;7.95;7.25;;;17.20;56.60;;;;;;5155826;27;20218;-69
2022/04/14 04:55:44;;;;;;;7.35;6.75;;;17.20;56.60;;;;;;5155429;27;20586;-70
2022/04/14 04:58:10;;;;;;;6.72;6.13;;;17.20;56.60;;;;;;5156028;27;20171;-73
2022/04/14 05:00:35;;;;;;;7.20;6.47;;;17.20;56.60;;;;;;5155745;27;20168;-70
2022/04/14 05:03:01;;;;;;;7.78;7.07;;;17.20;56.60;;;;;;5154662;27;20299;-72
2022/04/14 05:05:26;;;;;;;7.03;6.43;;;17.20;56.60;;;;;;5146741;27;20180;-69
2022/04/14 05:07:53;;;;;;;7.07;6.47;;;17.20;56.60;;;;;;5134170;27;20196;-70
2022/04/14 05:10:18;;;;;;;8.25;7.55;;;17.20;56.60;;;;;;5133817;27;20210;-70
2022/04/14 05:12:44;;;;;;;7.00;6.50;;;17.20;56.60;;;;;;5133801;27;20304;-71
2022/04/14 05:15:10;;;;;;;7.53;6.90;;;17.20;56.60;;;;;;5134264;27;20176;-70
2022/04/14 05:17:35;;;;;;;7.15;6.55;;;17.20;56.60;;;;;;5133753;27;20202;-71
2022/04/14 05:20:02;;;;;;;7.45;6.75;;;17.20;56.70;;;;;;5134400;27;20168;-72
2022/04/14 05:22:27;;;;;;;7.95;7.25;;;17.20;56.60;;;;;;5133470;27;20687;-72
2022/04/14 05:24:53;;;;;;;7.85;7.25;;;17.20;56.60;;;;;;5133855;27;20271;-71
2022/04/14 05:27:18;;;;;;;6.88;6.30;;;17.20;56.60;;;;;;5134129;27;20172;-70
2022/04/14 05:29:44;;;;;;;7.70;7.10;;;17.20;56.60;;;;;;5133214;27;20186;-70
2022/04/14 05:32:09;;;;;;;7.50;6.90;;;17.10;56.60;;;;;;5133922;27;20674;-70
2022/04/14 05:34:35;;;;;;;7.55;6.95;;;17.20;56.60;;;;;;5134091;27;20503;-68
2022/04/14 05:37:00;;;;;;;7.30;6.70;;;17.20;56.60;;;;;;5133364;27;20206;-70
2022/04/14 05:39:26;;;;;;;7.13;6.53;;;17.20;56.60;;;;;;5133358;27;20168;-69
2022/04/14 05:41:51;;;;;;;6.32;5.82;;;17.20;56.60;;;;;;5133729;27;20210;-72
2022/04/14 05:44:18;;;;;;;6.70;6.18;;;17.20;56.60;;;;;;5133121;27;20176;-70
2022/04/14 05:46:43;;;;;;;7.38;6.78;;;17.10;56.60;;;;;;5133781;27;20199;-70
2022/04/14 05:49:09;;;;;;;6.50;6.00;;;17.20;56.60;;;;;;5134186;27;20627;-71
2022/04/14 05:51:34;;;;;;;8.57;7.00;;;17.20;56.60;;;;;;5132841;27;20692;-70
2022/04/14 05:54:00;;;;;;;7.30;6.78;;;17.20;56.60;;;;;;5133977;27;20188;-73
2022/04/14 05:56:25;;;;;;;7.18;6.57;;;17.10;56.60;;;;;;5133607;27;20180;-71
2022/04/14 05:58:53;;;;;;;6.45;5.95;;;17.20;56.60;;;;;;5132528;27;20638;-71
2022/04/14 06:01:18;;;;;;;7.28;6.68;;;17.10;56.60;;;;;;5133446;27;20533;-71
2022/04/14 06:03:44;;;;;;;7.28;6.68;;;17.20;56.60;;;;;;5133130;27;20195;-70
2022/04/14 06:06:11;;;;;;;7.18;6.57;;;17.10;56.60;;;;;;5147476;27;20179;-71
2022/04/14 06:08:37;;;;;;;7.43;6.82;;;17.20;56.60;;;;;;5153857;27;20171;-69
2022/04/14 06:11:04;;;;;;;6.53;6.03;;;17.20;56.60;;;;;;5154211;27;20529;-70
2022/04/14 06:13:30;;;;;;;7.32;6.72;;;17.20;56.60;;;;;;5153068;27;20667;-69
2022/04/14 06:15:55;;;;;;;6.93;6.43;;;17.20;56.60;;;;;;5153892;27;20243;-71
2022/04/14 06:18:21;;;;;;;7.45;6.75;;;17.20;56.60;;;;;;5154067;27;20298;-71
2022/04/14 06:20:48;;;;;;;7.53;6.93;;;17.20;56.60;;;;;;5152913;27;20180;-71
2022/04/14 06:23:16;;;;;;;7.88;7.18;;;17.20;56.50;;;;;;5153888;27;20171;-71
2022/04/14 06:25:45;;;;;;;6.82;6.32;;;17.20;56.60;;;;;;5153007;27;20175;-71
2022/04/14 06:28:10;;;;;;;6.63;6.05;;;17.20;56.50;;;;;;5153695;27;20220;-71
2022/04/14 06:30:36;;;;;;;7.20;6.60;;;17.20;56.50;;;;;;5140542;27;20230;-70
2022/04/14 06:33:05;;;;;;;7.18;6.57;;;17.30;56.50;;;;;;5132327;27;20200;-71
2022/04/14 06:35:31;;;;;;;7.03;6.53;;;17.30;56.60;;;;;;5133201;27;20179;-70
2022/04/14 06:37:57;;;;;;;7.88;7.18;;;17.30;56.60;;;;;;5133082;27;20177;-74
2022/04/14 06:40:22;;;;;;;7.30;6.70;;;17.40;56.60;;;;;;5132148;27;20655;-70
2022/04/14 06:42:48;;;;;;;7.18;6.57;;;17.40;56.60;;;;;;5132759;27;20191;-72
2022/04/14 06:45:14;;;;;;;7.05;6.45;;;17.40;56.40;;;;;;5132908;27;20507;-72
2022/04/14 06:47:39;;;;;;;7.85;7.07;;;17.40;56.40;;;;;;5131833;27;20272;-71
2022/04/14 06:50:05;;;;;;;7.13;6.45;;;17.40;56.40;;;;;;5132847;27;20630;-72
2022/04/14 06:52:30;;;;;;;6.25;5.75;;;17.50;56.40;;;;;;5132732;27;20239;-72
2022/04/14 06:54:56;;;;;;;6.82;6.22;;;17.40;56.30;;;;;;5132011;28;20183;-73
2022/04/14 06:57:21;;;;;;;7.28;6.68;;;17.50;56.30;;;;;;5132561;28;20173;-72
2022/04/14 06:59:47;;;;;;;6.60;6.00;;;17.50;56.30;;;;;;5132610;28;20168;-72
2022/04/14 07:02:12;;;;;;;7.00;6.40;;;17.50;56.40;;;;;;5131889;28;20231;-60
2022/04/14 07:04:38;;;;;;;7.53;6.82;;;17.50;56.40;;;;;;5132468;28;20186;-72
2022/04/14 07:07:04;;;;;;;7.50;6.80;;;17.50;56.60;;;;;;5132878;28;20259;-73
2022/04/14 07:09:33;;;;;;;7.63;6.93;;;17.40;56.70;;;;;;5131892;28;20210;-68
2022/04/14 07:12:02;;;;;;;7.53;6.80;;;17.50;56.90;;;;;;5132548;28;20208;-75
2022/04/14 07:14:28;;;;;;;7.45;6.75;;;17.50;56.70;;;;;;5132599;28;20176;-72
2022/04/14 07:16:54;;;;;;;8.00;7.30;;;17.50;56.50;;;;;;5131717;28;20196;-72
2022/04/14 07:19:20;;;;;;;7.60;6.70;;;17.60;56.60;;;;;;5132689;28;20183;-72
2022/04/14 07:21:46;;;;;;;8.45;7.03;;;17.60;56.60;;;;;;5132378;28;20546;-72
2022/04/14 07:24:11;;;;;;;6.55;6.05;;;17.70;56.50;;;;;;5131666;27;20211;-72
2022/04/14 07:26:37;;;;;;;6.88;6.25;;;17.70;56.50;;;;;;5132525;28;20209;-73
2022/04/14 07:29:03;;;;;;;6.90;6.28;;;17.70;56.60;;;;;;5131745;28;20642;-72
2022/04/14 07:31:31;;;;;;;7.25;6.57;;;17.80;56.70;;;;;;5132322;28;20370;-71
2022/04/14 07:33:59;;;;;;;7.20;6.57;;;17.80;56.60;;;;;;5131992;28;20244;-71
2022/04/14 07:36:25;;;;;;;6.90;6.38;;;17.80;56.70;;;;;;5131395;28;20169;-71
2022/04/14 07:38:51;;;;;;;7.20;6.55;;;17.80;56.70;;;;;;5131961;28;20180;-71
2022/04/14 07:41:16;;;;;;;6.50;6.00;;;17.90;56.90;;;;;;5132501;28;20165;-70
2022/04/14 07:43:42;;;;;;;6.93;5.72;;;17.90;56.90;;;;;;5131257;28;20639;-71
2022/04/14 07:46:07;;;;;;;6.78;6.25;;;17.90;57.00;;;;;;5132373;28;20172;-71
2022/04/14 07:48:33;;;;;;;6.70;6.00;;;17.90;56.90;;;;;;5132136;28;20179;-69
2022/04/14 07:51:01;;;;;;;8.07;6.07;;;17.90;56.90;;;;;;5131134;27;20175;-71
2022/04/14 07:53:27;;;;;;;6.25;5.65;;;17.90;56.80;;;;;;5131893;28;20208;-70
2022/04/14 07:55:53;;;;;;;6.82;6.13;;;18.00;56.90;;;;;;5131802;27;20180;-71
2022/04/14 07:58:20;;;;;;;5.68;5.18;;;18.00;56.90;;;;;;5131244;28;20619;-69
2022/04/14 08:00:46;;;;;;;6.43;5.82;;;18.00;56.80;;;;;;5131858;27;20169;-71
2022/04/14 08:03:11;;;;;;;7.47;6.20;;;18.00;56.80;;;;;;5134964;27;20351;-70
2022/04/14 08:05:41;;;;;;;6.05;5.40;;;18.00;56.90;;;;;;5134647;27;20454;-70
2022/04/14 08:08:13;;;;;;;6.32;5.72;;;18.00;56.90;;;;;;5135533;27;20172;-71
2022/04/14 08:10:39;;;;;;;6.70;6.05;;;18.10;57.00;;;;;;5135431;27;20196;-70
2022/04/14 08:13:05;;;;;;;7.53;6.80;;;18.10;57.00;;;;;;5134615;27;20570;-72
2022/04/14 08:15:31;;;;;;;6.40;5.70;;;18.10;57.00;;;;;;5135375;27;20168;-71
2022/04/14 08:17:57;;;;;;;8.23;5.43;;;18.20;57.00;;;;;;5135181;27;20200;-72
2022/04/14 08:20:23;;;;;;;7.28;5.57;;;18.20;57.00;;;;;;5134598;27;20172;-71
2022/04/14 08:22:56;;;;;;;5.95;5.15;;;18.20;57.00;;;;;;5135017;27;20201;-71
2022/04/14 08:25:24;;;;;;;7.05;6.28;;;18.20;56.90;;;;;;5134929;27;20176;-71
2022/04/14 08:27:53;;;;;;;6.40;5.80;;;18.30;56.90;;;;;;5134767;27;20603;-71
2022/04/14 08:30:20;;;;;;;5.82;5.32;;;18.40;56.90;;;;;;5135088;27;20184;-68
2022/04/14 08:32:46;;;;;;;5.75;5.05;;;18.40;56.90;;;;;;5134095;27;20208;-69
2022/04/14 08:35:12;;;;;;;5.45;4.95;;;18.30;56.90;;;;;;5134881;27;20228;-71
2022/04/14 08:37:38;;;;;;;6.15;5.28;;;18.30;57.00;;;;;;5134618;27;20181;-69
2022/04/14 08:40:08;;;;;;;5.65;5.00;;;18.40;57.10;;;;;;5134362;27;20643;-72
2022/04/14 08:42:58;;;;;;;5.60;5.10;;;18.30;57.00;;;;;;5134988;27;20192;-70
2022/04/14 08:45:25;;;;;;;5.13;4.72;;;18.40;57.10;;;;;;5116396;27;20177;-70
2022/04/14 08:47:51;;;;;;;5.70;5.13;;;18.30;57.10;;;;;;5133978;27;20600;-71
2022/04/14 08:50:16;;;;;;;5.40;4.90;;;18.40;57.20;;;;;;5134584;27;20683;-69
2022/04/14 08:52:42;;;;;;;5.03;4.57;;;18.30;57.10;;;;;;5134395;27;20242;-70
2022/04/14 08:55:11;;;;;;;5.82;4.82;;;18.30;57.20;;;;;;5133895;27;20286;-71
2022/04/14 08:57:37;;;;;;;5.35;4.85;;;18.30;57.30;;;;;;5134217;27;20518;-71
2022/04/14 09:00:05;;;;;;;5.10;4.70;;;18.20;58.00;;;;;;5134327;27;20190;-71
2022/04/14 09:02:31;;;;;;;5.25;4.75;;;18.20;57.40;;;;;;5133688;27;20224;-69
2022/04/14 09:04:56;;;;;;;5.43;4.97;;;18.20;57.50;;;;;;5115929;27;20218;-71
2022/04/14 09:07:22;;;;;;;4.80;4.40;;;18.20;57.50;;;;;;5115256;27;20233;-71
2022/04/14 09:09:47;;;;;;;5.93;4.68;;;18.30;57.40;;;;;;5133944;27;20741;-72
2022/04/14 09:12:13;;;;;;;4.80;4.35;;;18.30;57.30;;;;;;5115928;27;20292;-72
2022/04/14 09:14:39;;;;;;;5.30;4.85;;;18.40;57.20;;;;;;5132078;27;20662;-72
2022/04/14 09:17:05;;;;;;;5.10;4.47;;;18.40;57.10;;;;;;5134370;27;20184;-72
2022/04/14 09:19:31;;;;;;;5.22;4.72;;;18.50;57.10;;;;;;5134364;27;20184;-71
2022/04/14 09:22:00;;;;;;;5.97;4.93;;;18.50;57.10;;;;;;5133253;27;20168;-73
2022/04/14 09:24:48;;;;;;;4.85;4.35;;;18.50;57.10;;;;;;5134076;27;20223;-73
2022/04/14 09:27:28;;;;;;;5.03;4.60;;;18.50;57.10;;;;;;5133871;27;20204;-72
2022/04/14 09:30:05;;;;;;;4.88;4.45;;;18.60;57.20;;;;;;5132990;27;21077;-71
2022/04/14 09:32:37;;;;;;;4.72;4.32;;;18.50;57.10;;;;;;5134245;27;20539;-70
2022/04/14 09:35:04;;;;;;;5.15;4.43;;;18.60;57.10;;;;;;5133924;27;20537;-70
2022/04/14 09:37:29;;;;;;;5.10;4.55;;;18.60;57.20;;;;;;5133132;27;20263;-71
2022/04/14 09:40:02;;;;;;;5.90;4.32;;;18.60;57.20;;;;;;5133450;27;20268;-72
2022/04/14 09:42:42;;;;;;;5.07;4.40;;;18.60;57.10;;;;;;5133781;27;20179;-71
2022/04/14 09:45:25;;;;;;;4.40;4.00;;;18.70;57.10;;;;;;5133837;27;20168;-72
2022/04/14 09:47:51;;;;;;;4.75;4.28;;;18.70;57.10;;;;;;5133231;27;20646;-70
2022/04/14 09:50:44;;;;;;;4.43;3.97;;;18.70;57.10;;;;;;5133128;27;20184;-71
2022/04/14 09:53:14;;;;;;;4.63;4.22;;;18.70;57.10;;;;;;5133644;27;20258;-71
2022/04/14 09:55:40;;;;;;;4.15;3.85;;;18.80;57.10;;;;;;5133347;27;20198;-71
2022/04/14 09:58:12;;;;;;;4.40;4.00;;;18.80;57.00;;;;;;5132767;27;20200;-71
2022/04/14 10:00:45;;;;;;;3.95;3.65;;;18.80;57.10;;;;;;5133171;27;20176;-70
2022/04/14 10:03:18;;;;;;;5.13;4.32;;;18.80;57.00;;;;;;5133356;27;20589;-70
2022/04/14 10:05:48;;;;;;;4.70;4.30;;;18.80;57.00;;;;;;5132777;27;20200;-70
2022/04/14 10:08:14;;;;;;;4.43;3.75;;;18.80;57.00;;;;;;5133331;27;20770;-71
2022/04/14 10:10:41;;;;;;;4.70;4.30;;;18.90;57.00;;;;;;5132701;27;20204;-72
2022/04/14 10:13:07;;;;;;;3.83;3.53;;;18.90;57.00;;;;;;5133359;27;20213;-72
2022/04/14 10:15:37;;;;;;;4.50;4.20;;;18.90;57.00;;;;;;5133456;27;20264;-71
2022/04/14 10:18:13;;;;;;;4.00;3.70;;;19.00;57.00;;;;;;5132729;27;20184;-73
2022/04/14 10:20:39;;;;;;;4.32;3.70;;;19.00;56.90;;;;;;5132778;27;20179;-71
2022/04/14 10:23:05;;;;;;;4.18;3.78;;;19.00;56.90;;;;;;5133177;27;20274;-71
2022/04/14 10:25:32;;;;;;;4.25;3.90;;;19.00;56.90;;;;;;5132029;27;20199;-74
2022/04/14 10:27:58;;;;;;;6.20;4.30;;;19.10;57.40;;;;;;5133350;27;20183;-71
2022/04/14 10:30:24;;;;;;;5.03;4.07;;;19.10;56.80;;;;;;5133138;27;20200;-71
2022/04/14 10:32:50;;;;;;;3.70;3.40;;;19.20;56.80;;;;;;5132254;27;20246;-69
2022/04/14 10:35:15;;;;;;;3.78;3.47;;;19.20;56.60;;;;;;5097747;27;20533;-70
2022/04/14 10:37:50;;;;;;;4.43;3.70;;;19.20;56.60;;;;;;5114130;27;20228;-70
2022/04/14 10:40:15;;;;;;;3.88;3.22;;;19.20;56.80;;;;;;5113649;28;20171;-71
2022/04/14 10:42:46;;;;;;;3.95;3.65;;;19.20;56.70;;;;;;5113996;28;20191;-70
2022/04/14 10:45:21;;;;;;;3.70;3.40;;;19.20;56.70;;;;;;5114388;27;20251;-70
2022/04/14 10:47:49;;;;;;;3.95;3.65;;;19.10;56.80;;;;;;5131641;27;20243;-70
2022/04/14 10:50:31;;;;;;;4.20;3.55;;;19.10;56.80;;;;;;5132518;27;20259;-70
2022/04/14 10:53:11;;;;;;;3.40;3.10;;;19.20;56.80;;;;;;5131743;27;20212;-70
2022/04/14 10:55:44;;;;;;;3.78;3.47;;;19.20;56.70;;;;;;5132632;28;20167;-72
2022/04/14 10:58:50;;;;;;;3.88;3.58;;;19.10;56.80;;;;;;5133029;28;20253;-69
2022/04/14 11:01:16;;;;;;;4.22;3.40;;;19.10;56.80;;;;;;5048662;28;20270;-71
2022/04/14 11:03:49;;;;;;;4.90;3.33;;;19.10;56.90;;;;;;5087113;28;20555;-72
2022/04/14 11:06:47;;;;;;;3.47;2.92;;;19.00;56.90;;;;;;5133142;28;20177;-70
2022/04/14 11:09:42;;;;;;;4.35;3.83;;;19.00;57.00;;;;;;5132132;28;20297;-69
2022/04/14 11:12:09;;;;;;;3.85;3.00;;;18.90;57.30;;;;;;5133019;28;20212;-73
2022/04/14 11:14:35;;;;;;;3.42;3.13;;;19.00;57.40;;;;;;5132100;28;20224;-71
2022/04/14 11:17:01;;;;;;;3.85;3.55;;;19.00;57.50;;;;;;5132894;28;20176;-71
2022/04/14 11:19:27;;;;;;;3.55;3.13;;;18.90;57.40;;;;;;5132649;28;20179;-69
2022/04/14 11:21:59;;;;;;;5.45;3.25;;;18.80;57.50;;;;;;5131553;28;20182;-70
2022/04/14 11:24:36;;;;;;;4.10;3.28;;;18.80;57.60;;;;;;5132650;28;20574;-69
2022/04/14 11:27:28;;;;;;;3.75;3.45;;;18.80;57.70;;;;;;5132917;28;20198;-69
2022/04/14 11:29:58;;;;;;;2.92;2.67;;;18.80;57.70;;;;;;5132228;28;20183;-71
2022/04/14 11:32:39;;;;;;;3.78;3.08;;;18.80;57.80;;;;;;5133027;27;20208;-73
2022/04/14 11:35:15;;;;;;;3.72;3.10;;;18.80;57.80;;;;;;5132093;28;20237;-74
2022/04/14 11:37:42;;;;;;;5.25;3.13;;;18.80;57.90;;;;;;5134909;27;20176;-73
2022/04/14 11:40:18;;;;;;;3.05;2.75;;;18.80;57.90;;;;;;5136600;27;20176;-73
2022/04/14 11:42:53;;;;;;;2.78;2.53;;;18.80;57.90;;;;;;5116527;27;20180;-72
2022/04/14 11:45:23;;;;;;;3.13;2.83;;;18.80;57.80;;;;;;5135237;27;20172;-73
2022/04/14 11:47:48;;;;;;;4.45;2.90;;;18.80;57.70;;;;;;5136139;27;20191;-70
2022/04/14 11:50:14;;;;;;;4.55;3.13;;;18.90;57.60;;;;;;5135903;27;20173;-72
2022/04/14 11:52:41;;;;;;;3.05;2.58;;;19.00;57.30;;;;;;5118055;27;20266;-72
2022/04/14 11:55:07;;;;;;;3.30;2.85;;;19.00;57.40;;;;;;5101619;27;20176;-70
2022/04/14 11:57:33;;;;;;;3.15;2.83;;;19.00;57.50;;;;;;5135526;27;20251;-70
2022/04/14 12:00:11;;;;;;;5.05;2.80;;;19.00;57.60;;;;;;5135792;27;20183;-72
2022/04/14 12:02:37;;;;;;;3.28;2.63;;;19.00;57.60;;;;;;5135429;27;20251;-69
2022/04/14 12:05:02;;;;;;;3.53;3.22;;;19.00;57.60;;;;;;5135061;27;20376;-69
2022/04/14 12:07:33;;;;;;;3.55;2.83;;;19.00;57.50;;;;;;5135442;27;20176;-69
2022/04/14 12:09:59;;;;;;;3.00;2.63;;;19.20;57.30;;;;;;5134995;27;20189;-71
2022/04/14 12:12:25;;;;;;;4.40;2.75;;;19.10;57.10;;;;;;5135095;27;20248;-71
2022/04/14 12:14:52;;;;;;;3.72;2.80;;;19.10;57.30;;;;;;5135493;27;20192;-71
2022/04/14 12:17:22;;;;;;;4.95;2.75;;;19.10;57.40;;;;;;5135028;27;20176;-72
2022/04/14 12:19:51;;;;;;;2.85;2.65;;;19.00;57.40;;;;;;5135630;27;20172;-64
2022/04/14 12:22:20;;;;;;;3.70;2.45;;;19.00;57.60;;;;;;5135745;27;20642;-69
2022/04/14 12:24:53;;;;;;;2.70;2.40;;;19.00;57.50;;;;;;5134612;27;20168;-70
2022/04/14 12:27:22;;;;;;;5.68;2.70;;;19.00;57.50;;;;;;5117193;27;20572;-68
2022/04/14 12:29:49;;;;;;;4.88;2.50;;;19.00;57.50;;;;;;5135258;27;20188;-68
2022/04/14 12:32:16;;;;;;;4.32;2.60;;;18.90;57.50;;;;;;5116316;27;20239;-69
2022/04/14 12:34:44;;;;;;;4.22;2.83;;;19.00;57.50;;;;;;5135063;27;20191;-69
2022/04/14 12:37:13;;;;;;;6.13;2.40;;;18.90;57.50;;;;;;5135572;27;20225;-70
2022/04/14 12:39:55;;;;;;;3.83;2.38;;;18.90;57.50;;;;;;5134672;27;20233;-69
2022/04/14 12:42:39;;;;;;;3.35;2.50;;;18.90;57.50;;;;;;5135606;27;20193;-69
2022/04/14 12:45:12;;;;;;;2.97;2.50;;;18.90;57.50;;;;;;5135362;27;20206;-71
2022/04/14 12:47:40;;;;;;;3.25;2.22;;;18.90;57.40;;;;;;5134341;27;20215;-68
2022/04/14 12:50:06;;;;;;;3.22;2.38;;;18.90;57.40;;;;;;5117050;27;20209;-71